createdAt,value
2017-06-24T00:00:55.214Z,22.20
2017-06-24T00:03:23.505Z,22.10
2017-06-24T00:05:51.762Z,22.10
2017-06-24T00:08:20.021Z,22.00
2017-06-24T00:10:48.286Z,21.90
2017-06-24T00:13:16.520Z,21.90
2017-06-24T00:15:44.853Z,21.80
2017-06-24T00:18:13.189Z,21.80
2017-06-24T00:20:42.266Z,21.80
2017-06-24T00:23:10.582Z,21.80
2017-06-24T00:25:39.701Z,21.80
2017-06-24T00:28:08.120Z,21.70
2017-06-24T00:30:36.330Z,21.80
2017-06-24T00:33:04.581Z,21.80
2017-06-24T00:35:33.579Z,21.70
2017-06-24T00:38:02.712Z,21.60
2017-06-24T00:40:30.990Z,21.60
2017-06-24T00:42:59.243Z,21.60
2017-06-24T00:45:27.476Z,21.60
2017-06-24T00:47:55.808Z,21.50
2017-06-24T00:50:24.056Z,21.40
2017-06-24T00:52:53.141Z,21.40
2017-06-24T00:55:22.202Z,21.40
2017-06-24T00:57:50.741Z,21.40
2017-06-24T01:00:19.117Z,21.30
2017-06-24T01:02:48.282Z,21.40
2017-06-24T01:05:16.639Z,21.30
2017-06-24T01:07:45.064Z,21.40
2017-06-24T01:10:14.382Z,21.30
2017-06-24T01:12:42.747Z,21.30
2017-06-24T01:15:10.989Z,21.40
2017-06-24T01:17:39.552Z,21.40
2017-06-24T01:20:07.799Z,21.40
2017-06-24T01:22:36.100Z,21.40
2017-06-24T01:25:04.329Z,21.40
2017-06-24T01:27:32.599Z,21.40
2017-06-24T01:30:01.592Z,21.40
2017-06-24T01:32:30.381Z,21.40
2017-06-24T01:34:58.729Z,21.50
2017-06-24T01:37:27.041Z,21.50
2017-06-24T01:39:55.276Z,21.50
2017-06-24T01:42:23.608Z,21.50
2017-06-24T01:44:51.857Z,21.50
2017-06-24T01:47:20.117Z,21.40
2017-06-24T01:49:49.145Z,21.40
2017-06-24T01:52:17.434Z,21.40
2017-06-24T01:54:45.815Z,21.40
2017-06-24T01:57:14.045Z,21.30
2017-06-24T01:59:42.370Z,21.30
2017-06-24T02:02:10.614Z,21.20
2017-06-24T02:04:38.883Z,21.20
2017-06-24T02:07:07.144Z,21.10
2017-06-24T02:09:36.273Z,21.10
2017-06-24T02:12:04.505Z,21.10
2017-06-24T02:14:33.644Z,21.00
2017-06-24T02:17:01.884Z,21.00
2017-06-24T02:19:31.012Z,20.90
2017-06-24T02:21:59.254Z,20.90
2017-06-24T02:24:28.385Z,20.80
2017-06-24T02:26:56.663Z,20.80
2017-06-24T02:29:24.929Z,20.80
2017-06-24T02:31:53.234Z,20.80
2017-06-24T02:34:21.501Z,20.80
2017-06-24T02:36:49.722Z,20.80
2017-06-24T02:39:18.857Z,20.80
2017-06-24T02:41:47.128Z,20.70
2017-06-24T02:44:15.390Z,20.80
2017-06-24T02:46:43.723Z,20.70
2017-06-24T02:49:11.998Z,20.70
2017-06-24T02:51:40.343Z,20.70
2017-06-24T02:54:08.662Z,20.70
2017-06-24T02:56:37.730Z,20.60
2017-06-24T02:59:05.957Z,20.60
2017-06-24T03:01:34.351Z,20.60
2017-06-24T03:04:02.669Z,20.60
2017-06-24T03:06:30.927Z,20.60
2017-06-24T03:08:59.195Z,20.50
2017-06-24T03:11:27.458Z,20.50
2017-06-24T03:13:55.697Z,20.50
2017-06-24T03:16:24.829Z,20.40
2017-06-24T03:18:53.121Z,20.40
2017-06-24T03:21:21.477Z,20.40
2017-06-24T03:23:49.757Z,20.40
2017-06-24T03:26:18.033Z,20.50
2017-06-24T03:28:46.337Z,20.50
2017-06-24T03:31:14.685Z,20.40
2017-06-24T03:33:42.925Z,20.40
2017-06-24T03:36:11.955Z,20.40
2017-06-24T03:38:40.189Z,20.40
2017-06-24T03:41:09.239Z,20.20
2017-06-24T03:43:37.558Z,20.10
2017-06-24T03:46:06.595Z,20.10
2017-06-24T03:48:34.929Z,20.10
2017-06-24T03:51:03.162Z,20.10
2017-06-24T03:53:31.394Z,20.00
2017-06-24T03:55:59.705Z,20.10
2017-06-24T03:58:27.932Z,20.10
2017-06-24T04:00:57.133Z,20.20
2017-06-24T04:03:25.364Z,20.10
2017-06-24T04:05:53.596Z,20.10
2017-06-24T04:08:21.891Z,20.20
2017-06-24T04:10:50.194Z,20.20
2017-06-24T04:13:18.545Z,20.10
2017-06-24T04:15:46.781Z,20.10
2017-06-24T04:18:15.806Z,20.10
2017-06-24T04:20:44.101Z,20.10
2017-06-24T04:23:12.445Z,20.10
2017-06-24T04:25:41.657Z,20.20
2017-06-24T04:28:09.953Z,20.30
2017-06-24T04:30:38.240Z,20.20
2017-06-24T04:33:06.589Z,20.20
2017-06-24T04:35:34.897Z,20.10
2017-06-24T04:38:03.273Z,20.10
2017-06-24T04:40:31.623Z,20.10
2017-06-24T04:42:59.952Z,20.20
2017-06-24T04:45:28.270Z,20.20
2017-06-24T04:47:56.841Z,20.30
2017-06-24T04:50:25.183Z,20.40
2017-06-24T04:52:53.520Z,20.20
2017-06-24T04:55:21.765Z,20.20
2017-06-24T04:57:50.017Z,20.20
2017-06-24T05:00:19.081Z,20.00
2017-06-24T05:02:47.417Z,20.00
2017-06-24T05:05:15.709Z,19.90
2017-06-24T05:07:44.301Z,19.80
2017-06-24T05:10:12.535Z,19.80
2017-06-24T05:12:40.768Z,19.80
2017-06-24T05:15:09.021Z,19.80
2017-06-24T05:17:37.253Z,19.80
2017-06-24T05:20:06.386Z,19.80
2017-06-24T05:22:34.624Z,19.80
2017-06-24T05:25:03.642Z,19.80
2017-06-24T05:27:31.935Z,19.80
2017-06-24T05:30:00.211Z,19.80
2017-06-24T05:32:28.477Z,19.80
2017-06-24T05:34:56.772Z,19.80
2017-06-24T05:37:25.006Z,19.90
2017-06-24T05:39:53.408Z,20.00
2017-06-24T05:42:21.636Z,20.20
2017-06-24T05:44:50.651Z,20.40
2017-06-24T05:47:18.949Z,20.40
2017-06-24T05:49:47.222Z,20.40
2017-06-24T05:52:15.449Z,20.50
2017-06-24T05:54:44.468Z,20.60
2017-06-24T05:57:12.718Z,20.60
2017-06-24T05:59:41.785Z,20.70
2017-06-24T06:02:10.076Z,20.70
2017-06-24T06:04:38.412Z,20.60
2017-06-24T06:07:06.744Z,20.70
2017-06-24T06:09:35.941Z,20.70
2017-06-24T06:12:04.149Z,20.70
2017-06-24T06:14:32.424Z,20.80
2017-06-24T06:17:00.753Z,20.80
2017-06-24T06:19:29.829Z,20.90
2017-06-24T06:21:58.067Z,21.00
2017-06-24T06:24:26.361Z,20.90
2017-06-24T06:26:54.593Z,20.90
2017-06-24T06:29:23.671Z,20.80
2017-06-24T06:31:51.912Z,20.80
2017-06-24T06:34:20.150Z,20.80
2017-06-24T06:36:48.585Z,20.90
2017-06-24T06:39:16.813Z,21.00
2017-06-24T06:41:45.090Z,21.00
2017-06-24T06:44:13.349Z,21.30
2017-06-24T06:46:42.365Z,21.70
2017-06-24T06:49:10.613Z,21.60
2017-06-24T06:51:39.635Z,21.70
2017-06-24T06:54:07.876Z,21.70
2017-06-24T06:56:36.889Z,21.90
2017-06-24T06:59:05.201Z,21.90
2017-06-24T07:01:33.583Z,22.00
2017-06-24T07:04:01.815Z,22.10
2017-06-24T07:06:30.194Z,22.20
2017-06-24T07:08:59.065Z,22.40
2017-06-24T07:11:28.094Z,22.30
2017-06-24T07:13:56.325Z,22.30
2017-06-24T07:16:24.579Z,22.30
2017-06-24T07:18:52.825Z,22.30
2017-06-24T07:21:21.173Z,22.30
2017-06-24T07:23:50.169Z,22.00
2017-06-24T07:26:18.490Z,22.00
2017-06-24T07:28:46.853Z,22.10
2017-06-24T07:31:15.195Z,22.10
2017-06-24T07:33:44.287Z,22.10
2017-06-24T07:36:12.598Z,22.10
2017-06-24T07:38:40.857Z,22.10
2017-06-24T07:41:09.086Z,22.10
2017-06-24T07:43:37.420Z,22.20
2017-06-24T07:46:05.653Z,22.10
2017-06-24T07:48:34.757Z,21.90
2017-06-24T07:51:03.769Z,21.70
2017-06-24T07:53:32.016Z,21.70
2017-06-24T07:56:00.989Z,21.50
2017-06-24T07:58:29.245Z,21.40
2017-06-24T08:00:57.529Z,21.00
2017-06-24T08:03:25.785Z,20.90
2017-06-24T08:05:54.017Z,21.00
2017-06-24T08:08:23.038Z,21.50
2017-06-24T08:10:51.324Z,21.40
2017-06-24T08:13:19.585Z,21.70
2017-06-24T08:15:47.905Z,22.10
2017-06-24T08:18:16.258Z,22.30
2017-06-24T08:20:44.733Z,22.30
2017-06-24T08:23:13.055Z,22.30
2017-06-24T08:25:41.404Z,22.00
2017-06-24T08:28:09.665Z,21.70
2017-06-24T08:30:37.909Z,21.50
2017-06-24T08:33:07.034Z,21.70
2017-06-24T08:35:35.318Z,21.70
2017-06-24T08:38:03.631Z,21.90
2017-06-24T08:40:31.893Z,22.10
2017-06-24T08:43:00.137Z,22.40
2017-06-24T08:45:28.389Z,22.60
2017-06-24T08:47:56.704Z,22.70
2017-06-24T08:50:25.081Z,22.60
2017-06-24T08:52:53.333Z,22.60
2017-06-24T08:55:21.585Z,22.50
2017-06-24T08:57:50.626Z,22.20
2017-06-24T09:00:18.938Z,22.20
2017-06-24T09:02:47.181Z,22.30
2017-06-24T09:05:15.540Z,22.50
2017-06-24T09:07:43.780Z,22.90
2017-06-24T09:10:12.807Z,23.90
2017-06-24T09:12:41.109Z,23.90
2017-06-24T09:15:09.431Z,24.40
2017-06-24T09:17:38.489Z,24.70
2017-06-24T09:20:06.744Z,24.70
2017-06-24T09:22:34.973Z,25.20
2017-06-24T09:25:04.000Z,25.50
2017-06-24T09:27:32.252Z,25.50
2017-06-24T09:30:01.371Z,25.70
2017-06-24T09:32:29.616Z,25.70
2017-06-24T09:34:57.886Z,26.00
2017-06-24T09:37:26.881Z,26.60
2017-06-24T09:39:56.011Z,26.90
2017-06-24T09:42:24.295Z,26.80
2017-06-24T09:44:52.662Z,27.50
2017-06-24T09:47:20.937Z,27.70
2017-06-24T09:49:49.245Z,28.20
2017-06-24T09:52:17.498Z,28.60
2017-06-24T09:54:47.651Z,28.80
2017-06-24T09:57:19.975Z,29.10
2017-06-24T09:59:48.633Z,29.70
2017-06-24T10:02:16.941Z,30.00
2017-06-24T10:04:45.261Z,30.10
2017-06-24T10:07:13.529Z,30.20
2017-06-24T10:09:41.912Z,30.10
2017-06-24T10:12:10.252Z,30.10
2017-06-24T10:14:38.478Z,30.10
2017-06-24T10:17:07.505Z,30.20
2017-06-24T10:19:35.818Z,30.20
2017-06-24T10:22:04.081Z,30.50
2017-06-24T10:24:32.313Z,30.80
2017-06-24T10:27:00.580Z,31.20
2017-06-24T10:29:29.682Z,32.20
2017-06-24T10:31:57.984Z,32.20
2017-06-24T10:34:26.232Z,33.10
2017-06-24T10:36:54.498Z,34.00
2017-06-24T10:39:24.245Z,35.20
2017-06-24T10:41:52.521Z,35.10
2017-06-24T10:44:21.481Z,34.60
2017-06-24T10:46:49.805Z,35.00
2017-06-24T10:49:18.057Z,35.40
2017-06-24T10:51:46.542Z,35.80
2017-06-24T10:54:14.791Z,35.70
2017-06-24T10:56:43.916Z,36.10
2017-06-24T10:59:12.143Z,36.10
2017-06-24T11:01:41.229Z,36.70
2017-06-24T11:04:09.557Z,36.70
2017-06-24T11:06:37.934Z,37.10
2017-06-24T11:09:06.177Z,37.40
2017-06-24T11:11:40.103Z,37.90
2017-06-24T11:14:08.338Z,37.80
2017-06-24T11:16:36.649Z,37.80
2017-06-24T11:19:04.953Z,37.80
2017-06-24T11:21:33.270Z,38.40
2017-06-24T11:24:01.529Z,38.40
2017-06-24T11:26:30.002Z,37.90
2017-06-24T11:28:58.372Z,38.10
2017-06-24T11:31:26.711Z,38.20
2017-06-24T11:33:55.755Z,38.40
2017-06-24T11:36:24.000Z,38.40
2017-06-24T11:38:52.253Z,39.00
2017-06-24T11:41:20.496Z,39.00
2017-06-24T11:43:48.836Z,38.60
2017-06-24T11:46:17.147Z,38.50
2017-06-24T11:48:45.481Z,37.80
2017-06-24T11:51:13.717Z,36.40
2017-06-24T11:53:42.733Z,34.80
2017-06-24T11:56:11.124Z,34.80
2017-06-24T11:58:39.377Z,33.70
2017-06-24T12:01:07.608Z,32.30
2017-06-24T12:03:36.001Z,31.20
2017-06-24T12:06:04.241Z,30.20
2017-06-24T12:08:32.600Z,29.70
2017-06-24T12:11:00.848Z,29.10
2017-06-24T12:13:29.877Z,28.70
2017-06-24T12:15:58.112Z,28.70
2017-06-24T12:18:27.254Z,27.90
2017-06-24T12:20:55.537Z,27.90
2017-06-24T12:23:23.957Z,27.70
2017-06-24T12:25:53.239Z,27.40
2017-06-24T12:28:21.513Z,27.40
2017-06-24T12:30:49.854Z,27.30
2017-06-24T12:33:18.177Z,27.20
2017-06-24T12:35:47.197Z,27.10
2017-06-24T12:38:15.497Z,27.10
2017-06-24T12:40:43.883Z,27.20
2017-06-24T12:43:12.118Z,27.20
2017-06-24T12:45:40.432Z,27.20
2017-06-24T12:48:08.720Z,27.30
2017-06-24T12:50:37.060Z,27.20
2017-06-24T12:53:05.296Z,26.90
2017-06-24T12:55:34.507Z,27.20
2017-06-24T12:58:02.729Z,27.20
2017-06-24T13:00:31.098Z,27.70
2017-06-24T13:02:59.414Z,28.20
2017-06-24T13:05:27.689Z,28.70
2017-06-24T13:07:55.921Z,29.50
2017-06-24T13:10:24.178Z,29.80
2017-06-24T13:12:52.535Z,29.50
2017-06-24T13:15:21.689Z,28.40
2017-06-24T13:17:49.937Z,28.40
2017-06-24T13:20:18.215Z,28.00
2017-06-24T13:22:47.292Z,27.40
2017-06-24T13:25:16.324Z,27.50
2017-06-24T13:27:46.222Z,27.10
2017-06-24T13:30:15.787Z,27.00
2017-06-24T13:32:44.767Z,27.00
2017-06-24T13:35:14.792Z,26.80
2017-06-24T13:37:43.672Z,26.80
2017-06-24T13:40:12.886Z,26.80
2017-06-24T13:42:41.288Z,26.60
2017-06-24T13:45:09.596Z,26.60
2017-06-24T13:47:37.870Z,26.50
2017-06-24T13:50:06.105Z,26.40
2017-06-24T13:52:34.361Z,26.40
2017-06-24T13:55:03.362Z,26.30
2017-06-24T13:57:32.370Z,26.20
2017-06-24T14:00:00.628Z,26.20
2017-06-24T14:02:28.936Z,26.30
2017-06-24T14:04:57.177Z,26.30
2017-06-24T14:07:26.313Z,26.20
2017-06-24T14:09:55.596Z,26.20
2017-06-24T14:12:25.370Z,26.30
2017-06-24T14:14:54.693Z,26.30
2017-06-24T14:17:24.184Z,26.20
2017-06-24T14:19:53.096Z,26.20
2017-06-24T14:22:22.792Z,26.30
2017-06-24T14:24:51.605Z,26.20
2017-06-24T14:27:21.949Z,26.20
2017-06-24T14:29:50.217Z,26.20
2017-06-24T14:32:18.473Z,26.30
2017-06-24T14:34:46.802Z,26.30
2017-06-24T14:37:15.140Z,26.30
2017-06-24T14:39:43.378Z,26.40
2017-06-24T14:42:12.393Z,26.60
2017-06-24T14:44:40.731Z,26.50
2017-06-24T14:47:08.991Z,26.60
2017-06-24T14:49:37.228Z,26.60
2017-06-24T14:52:05.601Z,26.60
2017-06-24T14:54:33.889Z,26.60
2017-06-24T14:57:02.267Z,26.50
2017-06-24T14:59:30.498Z,26.50
2017-06-24T15:01:59.501Z,26.40
2017-06-24T15:04:28.522Z,26.40
2017-06-24T15:06:56.837Z,26.40
2017-06-24T15:09:25.092Z,26.50
2017-06-24T15:11:53.360Z,26.50
2017-06-24T15:14:21.605Z,26.40
2017-06-24T15:16:50.006Z,26.50
2017-06-24T15:19:18.255Z,26.50
2017-06-24T15:21:46.510Z,26.60
2017-06-24T15:24:15.544Z,26.60
2017-06-24T15:26:43.898Z,26.60
2017-06-24T15:29:12.918Z,26.70
2017-06-24T15:31:41.197Z,26.70
2017-06-24T15:34:09.456Z,26.60
2017-06-24T15:36:37.754Z,26.60
2017-06-24T15:39:06.008Z,26.60
2017-06-24T15:41:34.249Z,26.50
2017-06-24T15:44:03.293Z,26.60
2017-06-24T15:46:31.569Z,26.60
2017-06-24T15:49:00.021Z,26.60
2017-06-24T15:51:28.326Z,26.60
2017-06-24T15:53:56.583Z,26.70
2017-06-24T15:56:24.881Z,26.70
2017-06-24T15:58:53.129Z,26.70
2017-06-24T16:01:21.365Z,26.70
2017-06-24T16:03:50.365Z,26.70
2017-06-24T16:06:18.703Z,26.70
2017-06-24T16:08:46.969Z,26.70
2017-06-24T16:11:15.257Z,26.80
2017-06-24T16:13:43.598Z,26.80
2017-06-24T16:16:11.877Z,26.80
2017-06-24T16:18:40.871Z,26.80
2017-06-24T16:21:09.137Z,26.80
2017-06-24T16:23:38.186Z,26.80
2017-06-24T16:26:06.493Z,26.80
2017-06-24T16:28:34.978Z,26.80
2017-06-24T16:31:04.060Z,26.80
2017-06-24T16:33:33.113Z,26.80
2017-06-24T16:36:01.546Z,26.80
2017-06-24T16:38:30.609Z,26.70
2017-06-24T16:40:58.853Z,26.70
2017-06-24T16:43:27.101Z,26.70
2017-06-24T16:45:55.398Z,26.70
2017-06-24T16:48:23.649Z,26.70
2017-06-24T16:50:51.972Z,26.70
2017-06-24T16:53:20.273Z,26.70
2017-06-24T16:55:48.520Z,26.70
2017-06-24T16:58:16.730Z,26.70
2017-06-24T17:00:45.758Z,26.70
2017-06-24T17:03:14.049Z,26.70
2017-06-24T17:05:42.317Z,26.70
2017-06-24T17:08:10.613Z,26.60
2017-06-24T17:10:38.968Z,26.60
2017-06-24T17:13:07.286Z,26.50
2017-06-24T17:15:35.630Z,26.50
2017-06-24T17:18:03.897Z,26.40
2017-06-24T17:20:32.145Z,26.30
2017-06-24T17:23:00.391Z,26.30
2017-06-24T17:25:28.742Z,26.30
2017-06-24T17:27:56.994Z,26.30
2017-06-24T17:30:25.234Z,26.30
2017-06-24T17:32:54.274Z,26.30
2017-06-24T17:35:22.501Z,26.20
2017-06-24T17:37:51.576Z,26.30
2017-06-24T17:40:19.919Z,26.30
2017-06-24T17:42:48.175Z,26.30
2017-06-24T17:45:16.442Z,26.30
2017-06-24T17:47:44.705Z,26.30
2017-06-24T17:50:13.775Z,26.20
2017-06-24T17:52:42.108Z,26.10
2017-06-24T17:55:10.353Z,26.20
2017-06-24T17:57:39.476Z,26.10
2017-06-24T18:00:07.715Z,26.00
2017-06-24T18:02:36.857Z,26.00
2017-06-24T18:05:05.598Z,26.00
2017-06-24T18:07:33.930Z,25.90
2017-06-24T18:10:02.210Z,25.90
2017-06-24T18:12:30.483Z,25.90
2017-06-24T18:14:58.717Z,25.90
2017-06-24T18:17:27.017Z,25.80
2017-06-24T18:19:55.406Z,25.80
2017-06-24T18:22:23.728Z,25.70
2017-06-24T18:24:52.767Z,25.60
2017-06-24T18:27:21.038Z,25.60
2017-06-24T18:29:49.264Z,25.60
2017-06-24T18:32:18.281Z,25.50
2017-06-24T18:34:46.577Z,25.50
2017-06-24T18:37:14.953Z,25.50
2017-06-24T18:39:43.214Z,25.40
2017-06-24T18:42:11.461Z,25.40
2017-06-24T18:44:40.500Z,25.30
2017-06-24T18:47:08.737Z,25.30
2017-06-24T18:49:37.873Z,25.20
2017-06-24T18:52:06.109Z,25.20
2017-06-24T18:54:35.213Z,25.10
2017-06-24T18:57:03.528Z,25.10
2017-06-24T18:59:31.902Z,25.10
2017-06-24T19:02:00.173Z,25.10
2017-06-24T19:04:28.497Z,25.00
2017-06-24T19:06:57.499Z,25.00
2017-06-24T19:09:25.740Z,25.00
2017-06-24T19:11:53.980Z,24.90
2017-06-24T19:14:22.346Z,25.00
2017-06-24T19:16:51.352Z,24.90
2017-06-24T19:19:19.593Z,24.90
2017-06-24T19:21:48.674Z,25.00
2017-06-24T19:24:16.897Z,25.00
2017-06-24T19:26:45.160Z,25.00
2017-06-24T19:29:13.487Z,25.00
2017-06-24T19:31:41.736Z,25.00
2017-06-24T19:34:10.041Z,25.00
2017-06-24T19:36:38.290Z,25.00
2017-06-24T19:39:06.555Z,25.00
2017-06-24T19:41:34.882Z,25.00
2017-06-24T19:44:03.150Z,25.10
2017-06-24T19:46:31.407Z,25.10
2017-06-24T19:48:59.682Z,25.10
2017-06-24T19:51:27.975Z,25.20
2017-06-24T19:53:56.323Z,25.20
2017-06-24T19:56:24.593Z,25.20
2017-06-24T19:58:52.817Z,25.20
2017-06-24T20:01:21.860Z,25.30
2017-06-24T20:03:50.155Z,25.20
2017-06-24T20:06:18.540Z,25.30
2017-06-24T20:08:46.753Z,25.30
2017-06-24T20:11:15.877Z,25.30
2017-06-24T20:13:44.104Z,25.30
2017-06-24T20:16:13.208Z,25.30
2017-06-24T20:18:42.255Z,25.30
2017-06-24T20:21:10.530Z,25.30
2017-06-24T20:23:38.765Z,25.30
2017-06-24T20:26:07.102Z,25.00
2017-06-24T20:28:35.358Z,25.00
2017-06-24T20:31:03.713Z,24.80
2017-06-24T20:33:31.950Z,24.80
2017-06-24T20:36:00.281Z,24.70
2017-06-24T20:38:28.516Z,24.70
2017-06-24T20:40:57.649Z,24.60
2017-06-24T20:43:25.897Z,24.50
2017-06-24T20:45:54.909Z,24.50
2017-06-24T20:48:23.150Z,24.50
2017-06-24T20:50:52.180Z,24.30
2017-06-24T20:53:20.420Z,24.30
2017-06-24T20:55:49.452Z,23.90
2017-06-24T20:58:17.693Z,23.80
2017-06-24T21:00:46.723Z,23.60
2017-06-24T21:03:14.999Z,23.50
2017-06-24T21:05:43.246Z,23.50
2017-06-24T21:08:11.497Z,23.40
2017-06-24T21:10:40.510Z,23.30
2017-06-24T21:13:09.517Z,23.20
2017-06-24T21:15:37.809Z,23.20
2017-06-24T21:18:06.086Z,23.10
2017-06-24T21:20:34.377Z,23.10
2017-06-24T21:23:02.694Z,23.10
2017-06-24T21:25:31.742Z,23.00
2017-06-24T21:28:00.109Z,23.00
2017-06-24T21:30:28.436Z,23.00
2017-06-24T21:32:57.525Z,22.90
2017-06-24T21:35:25.748Z,22.90
2017-06-24T21:37:53.998Z,22.80
2017-06-24T21:40:22.228Z,22.70
2017-06-24T21:42:50.503Z,22.70
2017-06-24T21:45:18.734Z,22.60
2017-06-24T21:47:47.005Z,22.50
2017-06-24T21:50:15.251Z,22.50
2017-06-24T21:52:43.585Z,22.40
2017-06-24T21:55:11.845Z,22.40
2017-06-24T21:57:40.077Z,22.40
2017-06-24T22:00:08.406Z,22.30
2017-06-24T22:02:36.649Z,22.20
2017-06-24T22:05:05.776Z,22.30
2017-06-24T22:07:34.015Z,22.30
2017-06-24T22:10:03.067Z,22.20
2017-06-24T22:12:31.345Z,22.20
2017-06-24T22:14:59.577Z,22.20
2017-06-24T22:17:28.071Z,22.10
2017-06-24T22:19:56.370Z,22.20
2017-06-24T22:22:24.611Z,22.10
2017-06-24T22:24:52.904Z,22.10
2017-06-24T22:27:21.205Z,22.10
2017-06-24T22:29:49.553Z,22.10
2017-06-24T22:32:17.830Z,22.00
2017-06-24T22:34:46.093Z,22.00
2017-06-24T22:37:14.330Z,22.00
2017-06-24T22:39:42.577Z,22.00
2017-06-24T22:42:10.895Z,21.90
2017-06-24T22:44:39.908Z,21.90
2017-06-24T22:47:08.204Z,21.90
2017-06-24T22:49:36.583Z,21.80
2017-06-24T22:52:04.808Z,21.80
2017-06-24T22:54:33.813Z,21.80
2017-06-24T22:57:02.827Z,21.70
2017-06-24T22:59:31.071Z,21.70
2017-06-24T23:01:59.389Z,21.70
2017-06-24T23:04:27.722Z,21.70
2017-06-24T23:06:56.041Z,21.70
2017-06-24T23:09:24.377Z,21.60
2017-06-24T23:11:53.455Z,21.70
2017-06-24T23:14:21.801Z,21.70
2017-06-24T23:16:50.065Z,21.60
2017-06-24T23:19:18.389Z,21.60
2017-06-24T23:21:46.635Z,21.60
2017-06-24T23:24:14.887Z,21.50
2017-06-24T23:26:43.169Z,21.40
2017-06-24T23:29:11.518Z,21.40
2017-06-24T23:31:39.777Z,21.30
2017-06-24T23:34:08.004Z,21.30
2017-06-24T23:36:36.261Z,21.20
2017-06-24T23:39:04.574Z,21.20
2017-06-24T23:41:32.933Z,21.20
2017-06-24T23:44:01.166Z,21.20
2017-06-24T23:46:30.184Z,21.10
2017-06-24T23:48:58.484Z,21.10
2017-06-24T23:51:26.849Z,21.10
2017-06-24T23:53:55.092Z,21.20
2017-06-24T23:56:23.329Z,21.20
2017-06-24T23:58:51.690Z,21.10
